Agana Heights, GU

2:15 PM ChST on February 12, 2016 (GMT +1000)
Maite | | Change Station
CLOSE
Current Station
Personal Weather Station
Location: Maite, GU
Elevation: 140 ft
Nearby Weather Stations

Elev 140 ft 13.48 °N, 144.76 °E | Updated 10 seconds ago

Scattered Clouds
Scattered Clouds
81.1 °F
Feels Like 85 °F
N
20.0
Wind Variable Wind from North
Gusts 29.0 mph

Today
High -- | Low -- °F
--% Chance of Precip.
Yesterday
High -- | Low -- °F
Precip. -- in
Pressure 29.91 in
Visibility 10.0 miles
Clouds Scattered Clouds 3100 ft
Heat Index 85 °F
Dew Point 72 °F
Humidity 73%
Rainfall 0.05 in
Snow Depth Not available.
6:45 AM 6:25 PM
Waxing Crescent, 17% visible
METAR PGUM 120354Z 04022G31KT 10SM SCT031 29/20 A2993 RMK AO2 PK WND 06032/0325 SLP128 T02890200 $
Pressure 29.91 in
Visibility 10.0 miles
Clouds Scattered Clouds 3100 ft
Heat Index 85 °F
Dew Point 72 °F
Humidity 73%
Rainfall 0.05 in
Snow Depth Not available.
6:45 AM 6:25 PM
Waxing Crescent, 17% visible
METAR PGUM 120354Z 04022G31KT 10SM SCT031 29/20 A2993 RMK AO2 PK WND 06032/0325 SLP128 T02890200 $

10-Day Weather Forecast

Almanac

Astronomy

Feb. 12, 2016 Rise Set
Actual Time
Civil Twilight
Nautical Twilight
Astronomical Twilight
Moon
Length of Visible Light
Length of Day
Tomorrow will be .
, % of the Moon is Illuminated

Today's Extremes

State Highs State Lows

Community

WunderPhotos

Upload Photos

1,892,265 photos uploaded!

WunderBlog® & News

Nearby

Air Quality

  Air Quality AQ Index Pollutant
Not available.

Snow Depth

Station Depth Elevation

Earthquake Activity

City Distance Mag. Time & Date
Minimum magnitude displayed is 2.5.

Coastal Water Temperatures

Place Temperature

Stations

Nearby Weather Stations

Station Location Temp. Windchill Dew Point Humidity Wind Precip. Elev Updated Type
                   

Watches & Warnings

There are currently no watches in effect.